Lollie, Arkansas
Current Conditions -  °F | °C
As of 7:58 AM on Friday 31 Oct 2014 (Local Time) from KLRF Reporting Station
Clear Clear  
Wind Chill: 51°   Ceiling: Unl
Heat Index: 51°   Visibility: 10mi
Dew Point: 43°   Wind: 7mph
Humidity: 73%   Direction: 320°NW
Pressure: 30.15"   Gusts: NA
Location:  34.9587°N, 92.3576°W
Report Text: KLRF 311258Z AUTO 32006KT 10SM CLR 11/06 A3015 RMK AO2 SLP213 T01080061
Loading
Personal Weather Stations






























Interactive Weather Map
Tropical Storm Tracking
New forecast layout! Learn more

10-Day Weather Forecast

Advertisements
Track Severe Weather on mobile